createdAt,value
2022-09-03T07:27:13.051Z,14.60
2022-09-03T07:29:41.876Z,14.70
2022-09-03T07:32:08.853Z,14.80
2022-09-03T07:34:35.687Z,14.80
2022-09-03T07:37:05.667Z,15.00
2022-09-03T07:39:33.657Z,15.10
2022-09-03T07:42:00.868Z,15.20
2022-09-03T07:44:30.285Z,15.10
2022-09-03T07:46:57.241Z,15.00
2022-09-03T07:49:24.083Z,15.10
2022-09-03T07:51:54.271Z,15.10
2022-09-03T07:54:23.591Z,15.00
2022-09-03T07:56:59.163Z,14.90
2022-09-03T07:59:26.296Z,15.20
2022-09-03T08:01:53.307Z,15.10
2022-09-03T08:04:22.035Z,15.10
2022-09-03T08:06:49.753Z,15.30
2022-09-03T08:09:16.653Z,15.60
2022-09-03T08:11:44.154Z,15.80
2022-09-03T08:14:12.460Z,15.80
2022-09-03T08:16:42.266Z,16.20
2022-09-03T08:19:09.714Z,16.10
2022-09-03T08:21:36.537Z,16.20
2022-09-03T08:24:03.847Z,16.50
2022-09-03T08:26:32.803Z,16.60
2022-09-03T08:29:00.345Z,16.80
2022-09-03T08:31:28.416Z,17.20
2022-09-03T08:33:57.734Z,17.50
2022-09-03T08:36:27.545Z,17.70
2022-09-03T08:38:55.369Z,17.80
2022-09-03T08:41:50.609Z,17.60
2022-09-03T08:44:40.900Z,17.50
2022-09-03T08:47:12.851Z,17.40
2022-09-03T08:50:27.788Z,17.40
2022-09-03T08:52:54.989Z,17.50
2022-09-03T08:55:27.793Z,17.10
2022-09-03T08:58:14.165Z,17.20
2022-09-03T09:00:52.797Z,17.40
2022-09-03T09:03:26.012Z,17.20
2022-09-03T09:06:24.802Z,17.40
2022-09-03T09:09:04.665Z,17.50
2022-09-03T09:11:41.989Z,17.70
2022-09-03T09:14:32.127Z,17.30
2022-09-03T09:17:08.755Z,17.30
2022-09-03T11:58:22.534Z,21.10
2022-09-03T12:00:50.544Z,21.20
2022-09-03T12:03:18.116Z,21.20
2022-09-03T12:05:50.467Z,21.30
2022-09-03T12:08:20.204Z,21.30
2022-09-03T12:11:09.938Z,21.10
2022-09-03T12:13:48.786Z,21.00
2022-09-03T12:16:33.440Z,21.20
2022-09-03T12:19:15.756Z,21.80
2022-09-03T12:21:42.662Z,22.20
2022-09-03T12:24:13.782Z,22.40
2022-09-03T12:26:42.786Z,21.70
2022-09-03T12:29:27.949Z,21.40
2022-09-03T12:31:58.656Z,21.50
2022-09-03T12:34:27.243Z,21.40
2022-09-03T12:36:54.970Z,21.80
2022-09-03T12:42:22.849Z,21.50
2022-09-03T12:44:49.840Z,22.00
2022-09-03T12:47:36.502Z,22.30
2022-09-03T12:50:13.324Z,22.60
2022-09-03T12:52:42.222Z,22.20
2022-09-03T12:55:16.718Z,22.40
2022-09-03T12:58:13.620Z,22.20
2022-09-03T13:00:49.657Z,22.10
2022-09-03T13:03:19.476Z,21.80
2022-09-03T13:05:52.611Z,21.50
2022-09-03T13:08:23.461Z,21.50
2022-09-03T13:10:56.409Z,21.40
2022-09-03T13:13:30.778Z,21.40
2022-09-03T13:16:09.829Z,21.20
2022-09-03T13:19:10.519Z,21.10
2022-09-03T13:21:44.155Z,21.30
2022-09-03T13:24:13.797Z,21.20
2022-09-03T13:27:07.103Z,21.20
2022-09-03T13:29:42.977Z,21.30
2022-09-03T13:32:40.749Z,21.50
2022-09-03T13:35:42.040Z,21.30
2022-09-03T13:38:52.233Z,21.30
2022-09-03T13:41:42.095Z,21.10
2022-09-03T13:44:17.981Z,21.10
2022-09-03T13:47:07.971Z,20.80
2022-09-03T13:50:13.327Z,20.30
2022-09-03T13:52:43.637Z,19.70
2022-09-03T13:55:33.504Z,19.50
2022-09-03T13:58:28.554Z,19.30
2022-09-03T14:00:58.358Z,19.10
2022-09-03T14:03:56.632Z,19.00
2022-09-03T14:06:43.220Z,18.90
2022-09-03T14:09:50.057Z,18.80
2022-09-03T14:12:46.927Z,18.90
2022-09-03T14:15:47.818Z,17.00
2022-09-03T14:18:42.227Z,16.40
2022-09-03T14:21:21.063Z,16.20
2022-09-03T14:24:25.418Z,16.00
2022-09-03T14:27:09.792Z,15.80
2022-09-03T14:29:45.834Z,15.80
2022-09-03T14:32:31.603Z,16.20
2022-09-03T14:35:23.546Z,15.80
2022-09-03T14:37:57.883Z,15.80
2022-09-03T14:40:44.907Z,15.90
2022-09-03T14:43:43.569Z,16.00
2022-09-03T14:46:25.163Z,16.30
2022-09-03T14:49:14.570Z,16.60
2022-09-03T14:52:03.629Z,16.80
2022-09-03T14:54:55.009Z,17.10
2022-09-03T14:57:43.875Z,17.20
2022-09-03T15:00:43.498Z,17.60
2022-09-03T15:03:28.889Z,18.00
2022-09-03T15:05:58.639Z,18.30
2022-09-03T15:08:45.720Z,18.40
2022-09-03T15:11:22.796Z,18.30
2022-09-03T15:14:01.700Z,18.00
2022-09-03T15:16:56.337Z,18.00
2022-09-03T15:19:48.163Z,18.10
2022-09-03T15:22:27.185Z,18.30
2022-09-03T15:25:12.244Z,18.50
2022-09-03T15:27:50.735Z,18.50
2022-09-03T15:30:20.150Z,18.90
2022-09-03T15:33:01.842Z,18.70
2022-09-03T15:35:40.637Z,18.80
2022-09-03T15:38:42.624Z,19.10
2022-09-03T15:41:36.364Z,19.20
2022-09-03T15:44:18.962Z,19.20
2022-09-03T15:48:19.075Z,18.90
2022-09-03T15:50:53.147Z,18.80
2022-09-03T15:53:37.831Z,18.80
2022-09-03T15:56:13.919Z,19.00
2022-09-03T15:59:02.113Z,19.20
2022-09-03T16:01:54.342Z,19.00
2022-09-03T16:04:39.437Z,18.80
2022-09-03T16:07:34.645Z,18.90
2022-09-03T16:10:25.492Z,19.00
2022-09-03T16:13:10.487Z,19.00
2022-09-03T16:15:43.429Z,18.80
2022-09-03T16:18:27.746Z,18.80
2022-09-03T16:21:00.766Z,18.80
2022-09-03T16:23:33.262Z,18.80
2022-09-03T16:26:35.792Z,18.70
2022-09-03T16:29:17.598Z,18.70
2022-09-03T16:32:07.388Z,18.80
2022-09-03T16:34:46.834Z,18.90
2022-09-03T16:37:16.571Z,19.00
2022-09-03T16:40:02.278Z,19.00
2022-09-03T16:42:48.638Z,19.40
2022-09-03T16:45:53.011Z,19.20
2022-09-03T16:48:40.995Z,19.40
2022-09-03T16:51:17.011Z,19.70
2022-09-03T16:54:08.577Z,20.60
2022-09-03T16:57:03.591Z,21.20
2022-09-03T17:00:04.487Z,20.50
2022-09-03T17:02:53.088Z,20.30
2022-09-03T17:05:47.963Z,20.50
2022-09-03T17:08:49.778Z,21.30
2022-09-03T17:11:54.863Z,21.40
2022-09-03T17:14:52.080Z,20.40
2022-09-03T17:17:45.331Z,20.00
2022-09-03T17:20:12.074Z,19.40
2022-09-03T17:22:39.562Z,19.20
2022-09-03T17:25:31.736Z,19.10
2022-09-03T17:28:24.669Z,19.00
2022-09-03T17:31:15.072Z,19.00
2022-09-03T17:34:20.045Z,19.00
2022-09-03T17:37:07.828Z,18.90
2022-09-03T17:39:53.285Z,18.90
2022-09-03T17:42:40.237Z,18.80
2022-09-03T17:45:34.216Z,18.70
2022-09-03T17:48:07.904Z,18.50
2022-09-03T17:50:46.847Z,18.30
